Energy Center, Louisiana
Current Conditions -  °F | °C
As of 6:53 AM on Wednesday 22 Oct 2014 (Local Time) from KLFT Reporting Station
Clear Clear  
Wind Chill: 14°   Ceiling: Unl
Heat Index: 14°   Visibility: 10mi
Dew Point: 14°   Wind: 3mph
Humidity: 97%   Direction: 40°NE
Pressure: 30.06"   Gusts: NA
Location:  30.2247°N, 92.0198°W
Report Text: KLFT 221153Z 04003KT 10SM CLR 14/14 A3006 RMK AO2 SLP180 T01440139 10167 20144 53011
Loading
Personal Weather Stations






























Interactive Weather Map
Tropical Storm Tracking
New forecast layout! Learn more

10-Day Weather Forecast

Advertisements
Track Severe Weather on mobile